Time;durP1;ratioP1;P1;durP2;ratioP2;P2;SDS_P1;SDS_P2;PMS_P1;PMS_P2;Temp;Humidity;BMP_temperature;BMP_pressure;BME280_temperature;BME280_humidity;BME280_pressure;Samples;Min_cycle;Max_cycle;Signal;HPM_P1;HPM_P2
2023/07/29 00:00:43;;;;;;;;;2.50;2.50;;;;;;;;5124560;27;45288;-74
2023/07/29 00:03:09;;;;;;;;;4.25;3.50;;;;;;;;5124197;27;45646;-75
2023/07/29 00:05:34;;;;;;;;;5.67;4.00;;;;;;;;5124092;27;46600;-74
2023/07/29 00:07:59;;;;;;;;;3.00;3.00;;;;;;;;5124028;27;45323;-74
2023/07/29 00:10:25;;;;;;;;;4.00;4.00;;;;;;;;5124370;27;45283;-75
2023/07/29 00:12:51;;;;;;;;;3.00;3.00;;;;;;;;5124187;27;45852;-74
2023/07/29 00:15:16;;;;;;;;;5.00;4.00;;;;;;;;5124145;27;46237;-74
2023/07/29 00:17:41;;;;;;;;;3.00;3.00;;;;;;;;5122834;27;45337;-74
2023/07/29 00:20:07;;;;;;;;;6.25;5.00;;;;;;;;5124081;27;45318;-74
2023/07/29 00:22:32;;;;;;;;;2.25;2.25;;;;;;;;5123403;27;45868;-74
2023/07/29 00:24:59;;;;;;;;;4.25;4.25;;;;;;;;5123982;27;46128;-74
2023/07/29 00:27:24;;;;;;;;;3.75;3.75;;;;;;;;5124087;27;45263;-75
2023/07/29 00:29:49;;;;;;;;;4.00;4.00;;;;;;;;5110427;27;45568;-74
2023/07/29 00:32:14;;;;;;;;;3.50;3.50;;;;;;;;5103102;27;45245;-74
2023/07/29 00:34:39;;;;;;;;;6.00;6.00;;;;;;;;5101935;27;45446;-75
2023/07/29 00:37:05;;;;;;;;;4.00;4.00;;;;;;;;5102961;27;45515;-74
2023/07/29 00:39:31;;;;;;;;;5.00;4.25;;;;;;;;5103140;27;45429;-74
2023/07/29 00:41:56;;;;;;;;;4.75;4.00;;;;;;;;5102848;27;46847;-75
2023/07/29 00:44:21;;;;;;;;;4.00;4.00;;;;;;;;5102938;27;48315;-75
2023/07/29 00:46:47;;;;;;;;;5.25;4.75;;;;;;;;5102940;27;45338;-75
2023/07/29 00:49:13;;;;;;;;;5.00;5.00;;;;;;;;5102873;27;45311;-74
2023/07/29 00:51:38;;;;;;;;;4.50;4.50;;;;;;;;5102314;27;46631;-74
2023/07/29 00:54:03;;;;;;;;;3.50;3.50;;;;;;;;5101922;27;46883;-74
2023/07/29 00:56:28;;;;;;;;;4.00;4.00;;;;;;;;5120318;27;45255;-75
2023/07/29 00:58:58;;;;;;;;;3.00;3.00;;;;;;;;5103015;27;45247;-74
2023/07/29 01:01:24;;;;;;;;;5.00;5.00;;;;;;;;5102398;27;46756;-75
2023/07/29 01:03:49;;;;;;;;;3.75;3.50;;;;;;;;5102511;27;46809;-74
2023/07/29 01:06:23;;;;;;;;;6.00;6.00;;;;;;;;5102822;27;45543;-74
2023/07/29 01:08:48;;;;;;;;;4.50;4.50;;;;;;;;5102597;27;45385;-74
2023/07/29 01:11:23;;;;;;;;;6.25;6.00;;;;;;;;5102490;27;45795;-74
2023/07/29 01:13:50;;;;;;;;;3.00;3.00;;;;;;;;5102568;27;47210;-74
2023/07/29 01:16:16;;;;;;;;;5.00;5.00;;;;;;;;5102535;27;45319;-74
2023/07/29 01:18:42;;;;;;;;;4.75;4.75;;;;;;;;5102414;27;45318;-74
2023/07/29 01:21:09;;;;;;;;;3.00;3.00;;;;;;;;5102349;27;46871;-74
2023/07/29 01:23:35;;;;;;;;;5.00;3.00;;;;;;;;5100951;27;48011;-74
2023/07/29 01:26:00;;;;;;;;;3.25;3.25;;;;;;;;5102347;27;45377;-75
2023/07/29 01:28:26;;;;;;;;;4.25;4.25;;;;;;;;5103571;27;45475;-74
2023/07/29 01:30:57;;;;;;;;;3.00;3.00;;;;;;;;5123173;27;46906;-74
2023/07/29 01:33:25;;;;;;;;;5.25;5.25;;;;;;;;5122809;27;47747;-74
2023/07/29 01:35:54;;;;;;;;;4.00;4.00;;;;;;;;5122492;27;45884;-74
2023/07/29 01:38:23;;;;;;;;;3.00;3.00;;;;;;;;5122592;27;45340;-74
2023/07/29 01:40:50;;;;;;;;;5.50;4.50;;;;;;;;5118247;27;45869;-75
2023/07/29 01:43:17;;;;;;;;;4.00;4.00;;;;;;;;5119211;27;45342;-74
2023/07/29 01:45:42;;;;;;;;;4.00;3.00;;;;;;;;5119334;27;45534;-74
2023/07/29 01:48:08;;;;;;;;;4.00;4.00;;;;;;;;5120942;27;45337;-74
2023/07/29 01:50:33;;;;;;;;;2.25;2.25;;;;;;;;5118925;27;46374;-74
2023/07/29 01:52:59;;;;;;;;;3.00;3.00;;;;;;;;5118965;27;48132;-74
2023/07/29 01:55:24;;;;;;;;;3.00;3.00;;;;;;;;5102270;27;45499;-74
2023/07/29 01:57:51;;;;;;;;;3.00;3.00;;;;;;;;5119399;27;45339;-74
2023/07/29 02:00:16;;;;;;;;;3.00;3.00;;;;;;;;5119298;27;45489;-74
2023/07/29 02:02:41;;;;;;;;;4.50;4.50;;;;;;;;5118981;27;47699;-74
2023/07/29 02:05:06;;;;;;;;;2.75;2.75;;;;;;;;5118913;27;45311;-74
2023/07/29 02:07:32;;;;;;;;;4.00;4.00;;;;;;;;5118043;27;45251;-74
2023/07/29 02:09:57;;;;;;;;;3.00;3.00;;;;;;;;5118629;27;47140;-74
2023/07/29 02:12:22;;;;;;;;;4.50;4.00;;;;;;;;5118815;27;46980;-75
2023/07/29 02:14:47;;;;;;;;;5.25;4.00;;;;;;;;5122417;27;45975;-74
2023/07/29 02:17:12;;;;;;;;;2.00;2.00;;;;;;;;5122895;27;45327;-74
2023/07/29 02:19:38;;;;;;;;;4.00;4.00;;;;;;;;5122395;27;45529;-73
2023/07/29 02:22:03;;;;;;;;;3.75;3.75;;;;;;;;5122126;27;45281;-74
2023/07/29 02:24:28;;;;;;;;;6.00;4.75;;;;;;;;5122173;27;45272;-74
2023/07/29 02:26:54;;;;;;;;;4.50;4.50;;;;;;;;5122491;27;45383;-74
2023/07/29 02:29:19;;;;;;;;;3.75;3.75;;;;;;;;5113342;27;45534;-74
2023/07/29 02:31:44;;;;;;;;;3.00;3.00;;;;;;;;5101402;27;45396;-74
2023/07/29 02:34:10;;;;;;;;;4.25;4.25;;;;;;;;5101570;27;45689;-75
2023/07/29 02:36:35;;;;;;;;;3.25;3.25;;;;;;;;5101455;27;45309;-74
2023/07/29 02:39:00;;;;;;;;;4.00;4.00;;;;;;;;5100472;27;45592;-74
2023/07/29 02:41:25;;;;;;;;;3.00;2.75;;;;;;;;5114195;27;45390;-74
2023/07/29 02:43:51;;;;;;;;;3.00;3.00;;;;;;;;5105011;27;45312;-74
2023/07/29 02:46:16;;;;;;;;;3.00;3.00;;;;;;;;5104989;27;46024;-74
2023/07/29 02:48:42;;;;;;;;;3.50;3.50;;;;;;;;5104247;27;45553;-73
2023/07/29 02:51:07;;;;;;;;;3.00;3.00;;;;;;;;5104730;27;47930;-74
2023/07/29 02:53:32;;;;;;;;;3.75;3.75;;;;;;;;5104675;27;45405;-74
2023/07/29 02:55:57;;;;;;;;;3.67;3.00;;;;;;;;5104884;27;45429;-74
2023/07/29 02:58:23;;;;;;;;;2.50;2.00;;;;;;;;5104628;27;46297;-74
2023/07/29 03:00:48;;;;;;;;;3.00;3.00;;;;;;;;5104641;27;48118;-74
2023/07/29 03:03:14;;;;;;;;;3.00;3.00;;;;;;;;5104695;27;45319;-74
2023/07/29 03:05:39;;;;;;;;;2.75;2.75;;;;;;;;5104522;27;45738;-74
2023/07/29 03:08:04;;;;;;;;;3.00;3.00;;;;;;;;5104424;27;45633;-74
2023/07/29 03:10:29;;;;;;;;;4.50;3.50;;;;;;;;5103710;27;46488;-74
2023/07/29 03:12:55;;;;;;;;;3.00;3.00;;;;;;;;5103854;27;45279;-74
2023/07/29 03:15:23;;;;;;;;;3.00;3.00;;;;;;;;5104696;27;45409;-74
2023/07/29 03:17:48;;;;;;;;;2.00;2.00;;;;;;;;5104444;27;45445;-74
2023/07/29 03:20:13;;;;;;;;;2.50;2.50;;;;;;;;5104246;27;45328;-74
2023/07/29 03:22:38;;;;;;;;;3.00;3.00;;;;;;;;5103979;27;45354;-74
2023/07/29 03:25:05;;;;;;;;;3.00;3.00;;;;;;;;5104407;27;45534;-74
2023/07/29 03:27:30;;;;;;;;;1.50;1.50;;;;;;;;5104205;27;45746;-74
2023/07/29 03:29:56;;;;;;;;;2.67;2.67;;;;;;;;5118127;27;46381;-74
2023/07/29 03:32:21;;;;;;;;;3.00;3.00;;;;;;;;5124838;27;45381;-73
2023/07/29 03:34:46;;;;;;;;;3.00;3.00;;;;;;;;5124889;27;45519;-74
2023/07/29 03:37:12;;;;;;;;;3.67;3.00;;;;;;;;5124534;27;46005;-74
2023/07/29 03:39:37;;;;;;;;;2.75;2.75;;;;;;;;5123641;27;48004;-74
2023/07/29 03:42:03;;;;;;;;;2.25;2.25;;;;;;;;5123997;27;45373;-74
2023/07/29 03:44:28;;;;;;;;;3.33;2.33;;;;;;;;5124836;27;45383;-74
2023/07/29 03:46:53;;;;;;;;;4.00;4.00;;;;;;;;5124522;27;47037;-73
2023/07/29 03:49:18;;;;;;;;;2.25;2.25;;;;;;;;5124345;27;47210;-74
2023/07/29 03:51:44;;;;;;;;;2.33;2.33;;;;;;;;5123513;27;45380;-74
2023/07/29 03:54:10;;;;;;;;;3.00;3.00;;;;;;;;5123884;27;45316;-74
2023/07/29 03:56:35;;;;;;;;;4.00;3.00;;;;;;;;5124330;27;45388;-74
2023/07/29 03:59:06;;;;;;;;;3.67;3.67;;;;;;;;5124425;27;47380;-74
2023/07/29 04:01:31;;;;;;;;;2.00;2.00;;;;;;;;5124456;27;45452;-74
2023/07/29 04:03:57;;;;;;;;;5.00;3.00;;;;;;;;5124423;27;45327;-74
2023/07/29 04:06:22;;;;;;;;;5.00;4.00;;;;;;;;5124287;27;45603;-74
2023/07/29 04:08:48;;;;;;;;;4.67;4.00;;;;;;;;5124018;27;46776;-74
2023/07/29 04:11:13;;;;;;;;;3.00;3.00;;;;;;;;5124360;27;45367;-74
2023/07/29 04:13:38;;;;;;;;;4.67;4.67;;;;;;;;5124274;27;45300;-74
2023/07/29 04:16:04;;;;;;;;;4.00;3.00;;;;;;;;5124087;27;45313;-74
2023/07/29 04:18:29;;;;;;;;;4.00;4.00;;;;;;;;5124306;27;46990;-73
2023/07/29 04:20:55;;;;;;;;;4.50;3.25;;;;;;;;5123865;27;45769;-74
2023/07/29 04:23:20;;;;;;;;;5.00;3.00;;;;;;;;5124103;27;45383;-74
2023/07/29 04:25:45;;;;;;;;;3.00;3.00;;;;;;;;5123832;27;46909;-74
2023/07/29 04:28:10;;;;;;;;;3.00;3.00;;;;;;;;5123912;27;47070;-74
2023/07/29 04:30:36;;;;;;;;;4.00;3.67;;;;;;;;5103920;27;45349;-74
2023/07/29 04:33:01;;;;;;;;;4.67;3.00;;;;;;;;5103591;27;45338;-74
2023/07/29 04:35:26;;;;;;;;;4.00;4.00;;;;;;;;5102591;27;45473;-74
2023/07/29 04:37:51;;;;;;;;;5.00;5.00;;;;;;;;5102843;27;45436;-74
2023/07/29 04:40:16;;;;;;;;;5.00;5.00;;;;;;;;5102875;27;45227;-74
2023/07/29 04:42:42;;;;;;;;;4.00;4.00;;;;;;;;5103239;27;45232;-74
2023/07/29 04:45:07;;;;;;;;;4.50;3.50;;;;;;;;5102951;27;45783;-74
2023/07/29 04:47:32;;;;;;;;;5.00;4.00;;;;;;;;5102882;27;47704;-74
2023/07/29 04:49:57;;;;;;;;;3.00;3.00;;;;;;;;5102859;27;45231;-73
2023/07/29 04:52:23;;;;;;;;;6.00;6.00;;;;;;;;5102685;27;45320;-74
2023/07/29 04:54:48;;;;;;;;;5.00;2.00;;;;;;;;5102883;27;46623;-74
2023/07/29 04:57:13;;;;;;;;;3.67;3.67;;;;;;;;5102809;27;45404;-74
2023/07/29 04:59:38;;;;;;;;;4.67;3.33;;;;;;;;5099014;27;45483;-74
2023/07/29 05:02:04;;;;;;;;;4.67;4.67;;;;;;;;5102223;27;45330;-74
2023/07/29 05:04:29;;;;;;;;;2.67;2.67;;;;;;;;5102218;27;45966;-74
2023/07/29 05:06:54;;;;;;;;;4.00;4.00;;;;;;;;5102638;27;47566;-74
2023/07/29 05:09:22;;;;;;;;;4.00;4.00;;;;;;;;5101936;27;45276;-74
2023/07/29 05:11:48;;;;;;;;;4.75;3.25;;;;;;;;5121317;27;45374;-74
2023/07/29 05:14:14;;;;;;;;;2.33;2.33;;;;;;;;5102547;27;45669;-73
2023/07/29 05:16:39;;;;;;;;;3.00;3.00;;;;;;;;5102570;27;46213;-75
2023/07/29 05:19:05;;;;;;;;;2.67;2.67;;;;;;;;5102488;27;45295;-74
2023/07/29 05:21:30;;;;;;;;;2.67;2.67;;;;;;;;5102728;27;45334;-74
2023/07/29 05:23:55;;;;;;;;;1.67;1.67;;;;;;;;5102308;27;46206;-74
2023/07/29 05:26:21;;;;;;;;;2.67;2.67;;;;;;;;5102354;27;46722;-74
2023/07/29 05:28:47;;;;;;;;;2.75;2.75;;;;;;;;5106504;27;45241;-74
2023/07/29 05:31:12;;;;;;;;;3.00;3.00;;;;;;;;5123264;27;45358;-74
2023/07/29 05:33:37;;;;;;;;;3.00;3.00;;;;;;;;5122473;27;46135;-75
2023/07/29 05:36:02;;;;;;;;;4.33;3.00;;;;;;;;5107348;27;46975;-75
2023/07/29 05:38:28;;;;;;;;;4.00;4.00;;;;;;;;5101711;27;45369;-74
2023/07/29 05:40:53;;;;;;;;;3.00;3.00;;;;;;;;5100621;27;45281;-75
2023/07/29 05:43:18;;;;;;;;;2.33;2.33;;;;;;;;5091089;27;45651;-75
2023/07/29 05:45:43;;;;;;;;;2.67;2.00;;;;;;;;5101487;27;48105;-75
2023/07/29 05:48:09;;;;;;;;;2.00;2.00;;;;;;;;5103009;27;45245;-75
2023/07/29 05:50:34;;;;;;;;;3.25;3.25;;;;;;;;5105609;27;45317;-75
2023/07/29 05:52:59;;;;;;;;;2.00;2.00;;;;;;;;5105612;27;46667;-74
2023/07/29 05:55:24;;;;;;;;;2.33;2.33;;;;;;;;5105864;27;46859;-75
2023/07/29 05:57:50;;;;;;;;;3.00;3.00;;;;;;;;5105735;27;45382;-74
2023/07/29 06:00:15;;;;;;;;;3.00;3.00;;;;;;;;5124584;27;45327;-75
2023/07/29 06:02:40;;;;;;;;;2.00;2.00;;;;;;;;5116683;27;45429;-76
2023/07/29 06:05:06;;;;;;;;;2.00;2.00;;;;;;;;5104458;27;46160;-74
2023/07/29 06:07:33;;;;;;;;;4.00;4.00;;;;;;;;5102683;27;45331;-74
2023/07/29 06:09:58;;;;;;;;;2.50;2.50;;;;;;;;5084939;27;45381;-74
2023/07/29 06:12:24;;;;;;;;;2.33;2.00;;;;;;;;5084984;27;45308;-74
2023/07/29 06:14:49;;;;;;;;;3.00;3.00;;;;;;;;5084836;27;47889;-74
2023/07/29 06:17:14;;;;;;;;;2.75;2.75;;;;;;;;5085084;27;45307;-73
2023/07/29 06:19:39;;;;;;;;;1.67;1.67;;;;;;;;5084999;27;45247;-73
2023/07/29 06:22:05;;;;;;;;;3.00;3.00;;;;;;;;5067673;27;46783;-74
2023/07/29 06:24:30;;;;;;;;;1.75;1.75;;;;;;;;5084444;27;47139;-74
2023/07/29 06:26:56;;;;;;;;;1.00;1.00;;;;;;;;5084708;27;45883;-74
2023/07/29 06:29:21;;;;;;;;;1.00;1.00;;;;;;;;5103034;27;45257;-74
2023/07/29 06:31:46;;;;;;;;;3.00;3.00;;;;;;;;5125773;27;45462;-74
2023/07/29 06:34:11;;;;;;;;;2.00;2.00;;;;;;;;5125669;27;46235;-77
2023/07/29 06:36:36;;;;;;;;;1.50;1.50;;;;;;;;5125690;27;45297;-74
2023/07/29 06:39:02;;;;;;;;;1.00;1.00;;;;;;;;5125584;27;45352;-74
2023/07/29 06:41:27;;;;;;;;;0.00;0.00;;;;;;;;5124980;27;45853;-74
2023/07/29 06:43:52;;;;;;;;;1.00;1.00;;;;;;;;5124478;27;46746;-74
2023/07/29 06:46:17;;;;;;;;;1.75;1.75;;;;;;;;5124566;27;45339;-74
2023/07/29 06:48:43;;;;;;;;;3.75;3.75;;;;;;;;5122123;27;45283;-74
2023/07/29 06:51:08;;;;;;;;;2.75;2.75;;;;;;;;5117650;27;45408;-74
2023/07/29 06:53:33;;;;;;;;;1.25;0.00;;;;;;;;5103238;27;46835;-74
2023/07/29 06:55:59;;;;;;;;;3.00;2.00;;;;;;;;5103713;27;45349;-74
2023/07/29 06:58:24;;;;;;;;;1.75;1.75;;;;;;;;5103462;27;45318;-74
2023/07/29 07:00:50;;;;;;;;;2.00;2.00;;;;;;;;5103238;27;45679;-74
2023/07/29 07:03:15;;;;;;;;;0.00;0.00;;;;;;;;5122111;27;45341;-73
2023/07/29 07:05:40;;;;;;;;;0.25;0.25;;;;;;;;5103284;27;45370;-74
2023/07/29 07:08:05;;;;;;;;;0.00;0.00;;;;;;;;5103628;27;45666;-74
2023/07/29 07:10:31;;;;;;;;;0.00;0.00;;;;;;;;5103354;27;45466;-74
2023/07/29 07:12:56;;;;;;;;;1.00;1.00;;;;;;;;5103390;27;47017;-73
2023/07/29 07:15:22;;;;;;;;;1.00;1.00;;;;;;;;5103318;27;45377;-74
2023/07/29 07:17:47;;;;;;;;;10.50;6.00;;;;;;;;5103396;27;45408;-74
2023/07/29 07:20:12;;;;;;;;;2.00;2.00;;;;;;;;5103186;27;45623;-73
2023/07/29 07:22:37;;;;;;;;;2.50;2.50;;;;;;;;5102923;27;48391;-74
2023/07/29 07:25:03;;;;;;;;;2.50;1.00;;;;;;;;5102966;27;45325;-74
2023/07/29 07:27:28;;;;;;;;;3.00;3.00;;;;;;;;5103345;27;45753;-74
2023/07/29 07:29:53;;;;;;;;;3.00;3.00;;;;;;;;5116510;27;45532;-74
2023/07/29 07:32:18;;;;;;;;;7.67;6.67;;;;;;;;5123583;27;47709;-74
2023/07/29 07:34:44;;;;;;;;;1.00;1.00;;;;;;;;5123483;27;45431;-74
2023/07/29 07:37:09;;;;;;;;;1.00;1.00;;;;;;;;5123387;27;45380;-74
2023/07/29 07:39:34;;;;;;;;;1.00;1.00;;;;;;;;5123394;27;45980;-74
2023/07/29 07:41:59;;;;;;;;;1.00;1.00;;;;;;;;5066142;27;1161209;-74
2023/07/29 07:44:26;;;;;;;;;0.50;0.50;;;;;;;;5123525;27;45648;-74
2023/07/29 07:46:51;;;;;;;;;1.75;1.75;;;;;;;;5124911;27;45328;-75
2023/07/29 07:49:16;;;;;;;;;1.25;1.25;;;;;;;;5124392;27;46765;-75
2023/07/29 07:51:43;;;;;;;;;2.00;1.00;;;;;;;;5124499;27;46905;-75
2023/07/29 07:54:08;;;;;;;;;1.75;0.75;;;;;;;;5124129;27;45445;-74
2023/07/29 07:56:33;;;;;;;;;1.00;1.00;;;;;;;;5124642;27;45280;-75
2023/07/29 07:58:58;;;;;;;;;0.00;0.00;;;;;;;;5143316;27;45213;-75
2023/07/29 08:01:24;;;;;;;;;0.50;0.50;;;;;;;;5124405;27;48022;-75
2023/07/29 08:03:49;;;;;;;;;1.00;1.00;;;;;;;;5124304;27;45277;-75
2023/07/29 08:06:14;;;;;;;;;1.00;1.00;;;;;;;;5124258;27;45167;-75
2023/07/29 08:08:39;;;;;;;;;0.00;0.00;;;;;;;;5123920;27;45431;-75
2023/07/29 08:11:05;;;;;;;;;0.00;0.00;;;;;;;;5123453;27;47312;-75
2023/07/29 08:13:30;;;;;;;;;0.50;0.50;;;;;;;;5124143;27;45371;-76
2023/07/29 08:15:55;;;;;;;;;0.00;0.00;;;;;;;;5124547;27;45368;-76
2023/07/29 08:18:21;;;;;;;;;0.25;0.25;;;;;;;;5124033;27;45594;-76
2023/07/29 08:20:53;;;;;;;;;2.00;2.00;;;;;;;;5123976;27;45388;-75
2023/07/29 08:23:19;;;;;;;;;0.00;0.00;;;;;;;;5123909;27;45316;-75
2023/07/29 08:25:44;;;;;;;;;2.00;2.00;;;;;;;;5124152;27;45428;-74
2023/07/29 08:28:11;;;;;;;;;1.00;1.00;;;;;;;;5123875;27;45625;-75
2023/07/29 08:30:36;;;;;;;;;0.50;0.50;;;;;;;;5103680;27;47820;-74
2023/07/29 08:33:01;;;;;;;;;1.00;1.00;;;;;;;;5103217;27;45350;-75
2023/07/29 08:35:26;;;;;;;;;0.75;0.75;;;;;;;;5103348;27;45321;-75
2023/07/29 08:37:52;;;;;;;;;1.00;1.00;;;;;;;;5102861;27;45894;-75
2023/07/29 08:40:17;;;;;;;;;1.50;0.00;;;;;;;;5103019;27;46938;-75
2023/07/29 08:42:44;;;;;;;;;1.00;1.00;;;;;;;;5102954;27;45235;-75
2023/07/29 08:45:11;;;;;;;;;1.75;1.75;;;;;;;;5103251;27;45408;-75
2023/07/29 08:47:36;;;;;;;;;0.00;0.00;;;;;;;;5103034;27;46910;-74
2023/07/29 08:50:02;;;;;;;;;0.50;0.50;;;;;;;;5102728;27;45337;-75
2023/07/29 08:52:28;;;;;;;;;1.00;1.00;;;;;;;;5102721;27;45263;-75
2023/07/29 08:54:54;;;;;;;;;1.75;1.75;;;;;;;;5102957;27;45262;-75
2023/07/29 08:57:20;;;;;;;;;1.50;1.50;;;;;;;;5102914;27;45599;-75
2023/07/29 08:59:45;;;;;;;;;1.00;1.00;;;;;;;;5102765;27;45830;-75
2023/07/29 09:02:10;;;;;;;;;3.75;3.00;;;;;;;;5102814;27;45295;-75
2023/07/29 09:04:36;;;;;;;;;2.00;2.00;;;;;;;;5102787;27;45349;-75
2023/07/29 09:07:01;;;;;;;;;1.00;1.00;;;;;;;;5102525;27;45320;-75
2023/07/29 09:09:26;;;;;;;;;1.50;1.50;;;;;;;;5102701;27;46368;-75
2023/07/29 09:11:52;;;;;;;;;2.50;2.50;;;;;;;;5102695;27;45405;-75
2023/07/29 09:14:17;;;;;;;;;2.75;2.75;;;;;;;;5102763;27;45358;-75
2023/07/29 09:16:43;;;;;;;;;2.00;2.00;;;;;;;;5102547;27;45492;-75
2023/07/29 09:19:08;;;;;;;;;2.50;2.50;;;;;;;;5102590;27;45372;-74
2023/07/29 09:21:33;;;;;;;;;1.00;1.00;;;;;;;;5102241;27;45319;-75
2023/07/29 09:24:02;;;;;;;;;1.00;1.00;;;;;;;;5102607;27;45292;-75
2023/07/29 09:26:28;;;;;;;;;2.00;2.00;;;;;;;;5102437;27;46625;-75
2023/07/29 09:28:54;;;;;;;;;2.00;2.00;;;;;;;;5107473;27;46232;-74
2023/07/29 09:31:20;;;;;;;;;2.50;2.50;;;;;;;;5123115;27;45297;-75
2023/07/29 09:33:45;;;;;;;;;1.75;1.75;;;;;;;;5123200;27;45391;-75
2023/07/29 09:36:11;;;;;;;;;2.00;2.00;;;;;;;;5122880;27;45764;-75
2023/07/29 09:38:36;;;;;;;;;2.00;2.00;;;;;;;;5122740;27;46802;-75
2023/07/29 09:41:02;;;;;;;;;2.75;2.25;;;;;;;;5122721;27;45363;-75
2023/07/29 09:43:31;;;;;;;;;2.00;2.00;;;;;;;;5123049;27;45330;-75
2023/07/29 09:46:01;;;;;;;;;2.50;2.50;;;;;;;;5122843;27;46277;-75
2023/07/29 09:48:26;;;;;;;;;2.75;2.75;;;;;;;;5122630;27;47081;-75
2023/07/29 09:50:51;;;;;;;;;2.75;2.75;;;;;;;;5122880;27;45312;-75
2023/07/29 09:53:16;;;;;;;;;2.75;2.75;;;;;;;;5122810;27;45388;-75
2023/07/29 09:55:46;;;;;;;;;2.00;2.00;;;;;;;;5122628;27;45693;-75
2023/07/29 09:58:11;;;;;;;;;3.00;3.00;;;;;;;;5122699;27;45362;-75
2023/07/29 10:00:38;;;;;;;;;3.75;3.00;;;;;;;;5122550;27;45688;-75
2023/07/29 10:03:04;;;;;;;;;1.50;1.50;;;;;;;;5122852;27;45207;-75
2023/07/29 10:05:29;;;;;;;;;1.75;1.75;;;;;;;;5122474;27;45598;-75
2023/07/29 10:07:55;;;;;;;;;1.00;1.00;;;;;;;;5122387;27;48305;-75
2023/07/29 10:10:21;;;;;;;;;3.75;3.00;;;;;;;;5122666;27;45368;-75
2023/07/29 10:12:46;;;;;;;;;3.75;3.75;;;;;;;;5122630;27;45420;-74
2023/07/29 10:15:11;;;;;;;;;2.25;2.25;;;;;;;;5122434;27;45541;-75
2023/07/29 10:17:37;;;;;;;;;3.00;3.00;;;;;;;;5122415;27;45374;-74
2023/07/29 10:20:07;;;;;;;;;2.50;2.50;;;;;;;;5122329;27;45392;-74
2023/07/29 10:22:33;;;;;;;;;3.00;3.00;;;;;;;;5122272;27;45425;-75
2023/07/29 10:25:02;;;;;;;;;4.00;4.00;;;;;;;;5122190;27;45487;-72
2023/07/29 10:27:28;;;;;;;;;2.00;2.00;;;;;;;;5122316;27;46686;-72
2023/07/29 10:29:55;;;;;;;;;2.75;2.75;;;;;;;;5108284;27;45372;-73
2023/07/29 10:32:23;;;;;;;;;2.00;2.00;;;;;;;;5101820;27;45369;-75
2023/07/29 10:34:48;;;;;;;;;2.00;2.00;;;;;;;;5103213;27;46346;-74
2023/07/29 10:37:13;;;;;;;;;4.00;3.00;;;;;;;;5104621;27;47027;-74
2023/07/29 10:39:39;;;;;;;;;2.00;2.00;;;;;;;;5104915;27;45254;-75
2023/07/29 10:42:05;;;;;;;;;4.50;4.50;;;;;;;;5100840;27;45527;-74
2023/07/29 10:44:40;;;;;;;;;4.00;4.00;;;;;;;;5100472;27;45708;-75
2023/07/29 10:47:12;;;;;;;;;4.00;4.00;;;;;;;;5099899;27;47182;-75
2023/07/29 10:49:39;;;;;;;;;2.50;2.50;;;;;;;;5101056;27;45526;-75
2023/07/29 10:52:05;;;;;;;;;3.00;3.00;;;;;;;;5101347;27;45272;-75
2023/07/29 10:54:30;;;;;;;;;4.75;4.75;;;;;;;;5101439;27;47311;-74
2023/07/29 10:56:57;;;;;;;;;4.00;4.00;;;;;;;;5101286;27;46514;-75
2023/07/29 10:59:31;;;;;;;;;6.00;4.50;;;;;;;;5101309;27;45453;-75
2023/07/29 11:01:57;;;;;;;;;4.00;2.00;;;;;;;;5101538;27;45337;-75
2023/07/29 11:04:23;;;;;;;;;4.25;4.25;;;;;;;;5101208;27;47175;-75
2023/07/29 11:07:07;;;;;;;;;4.75;4.75;;;;;;;;5100717;27;46428;-75
2023/07/29 11:09:47;;;;;;;;;4.50;4.50;;;;;;;;5101067;27;45367;-75
2023/07/29 11:12:32;;;;;;;;;4.00;4.00;;;;;;;;5101422;27;45270;-75
2023/07/29 11:14:57;;;;;;;;;3.25;3.25;;;;;;;;5101107;27;46721;-75
2023/07/29 11:17:23;;;;;;;;;3.00;3.00;;;;;;;;5100778;27;48343;-75
2023/07/29 11:19:49;;;;;;;;;3.00;3.00;;;;;;;;5100988;27;45233;-75
2023/07/29 11:22:15;;;;;;;;;4.75;4.75;;;;;;;;5100772;27;45180;-75
2023/07/29 11:24:44;;;;;;;;;5.00;5.00;;;;;;;;5100806;27;46744;-75
2023/07/29 11:27:12;;;;;;;;;4.00;4.00;;;;;;;;5102230;27;45392;-75
2023/07/29 11:29:37;;;;;;;;;5.00;5.00;;;;;;;;5112054;27;45230;-75
2023/07/29 11:32:02;;;;;;;;;5.50;4.00;;;;;;;;5121653;27;45163;-74
2023/07/29 11:34:34;;;;;;;;;5.25;5.00;;;;;;;;5121513;27;45495;-75
2023/07/29 11:36:59;;;;;;;;;3.75;3.75;;;;;;;;5121019;27;47296;-75
2023/07/29 11:39:24;;;;;;;;;3.00;3.00;;;;;;;;5121445;27;45275;-75
2023/07/29 11:41:49;;;;;;;;;2.75;2.75;;;;;;;;5121234;27;45371;-74
2023/07/29 11:44:18;;;;;;;;;10.50;7.00;;;;;;;;5121362;27;46075;-74
2023/07/29 11:46:43;;;;;;;;;4.00;4.00;;;;;;;;5119678;27;47265;-74
2023/07/29 11:49:08;;;;;;;;;3.75;3.75;;;;;;;;5121043;27;45297;-75
2023/07/29 11:51:33;;;;;;;;;3.00;3.00;;;;;;;;5121066;27;45319;-75
2023/07/29 11:53:59;;;;;;;;;2.00;2.00;;;;;;;;5120743;27;46189;-74
2023/07/29 11:56:25;;;;;;;;;3.25;3.25;;;;;;;;5121078;27;47264;-75
2023/07/29 11:58:50;;;;;;;;;3.00;3.00;;;;;;;;5103845;27;45759;-75
2023/07/29 12:01:15;;;;;;;;;2.25;1.50;;;;;;;;5121181;27;45586;-75
2023/07/29 12:03:41;;;;;;;;;2.00;2.00;;;;;;;;5120810;27;45686;-75
2023/07/29 12:06:06;;;;;;;;;1.00;1.00;;;;;;;;5120744;27;45393;-75
2023/07/29 12:08:32;;;;;;;;;3.00;2.00;;;;;;;;5120370;27;45314;-75
2023/07/29 12:10:57;;;;;;;;;1.75;1.75;;;;;;;;5121051;27;45445;-75
2023/07/29 12:13:25;;;;;;;;;3.00;3.00;;;;;;;;5120597;27;45603;-74
2023/07/29 12:15:50;;;;;;;;;3.00;3.00;;;;;;;;5120764;27;48425;-74
2023/07/29 12:18:16;;;;;;;;;3.00;3.00;;;;;;;;5120680;27;45729;-74
2023/07/29 12:20:41;;;;;;;;;2.00;2.00;;;;;;;;5103470;27;45410;-75
2023/07/29 12:23:07;;;;;;;;;7.25;5.00;;;;;;;;5099799;27;47075;-74
2023/07/29 12:25:33;;;;;;;;;2.50;2.50;;;;;;;;5099905;27;47061;-75
2023/07/29 12:28:02;;;;;;;;;2.75;2.75;;;;;;;;5099795;27;45238;-74
2023/07/29 12:30:27;;;;;;;;;2.00;2.00;;;;;;;;5118411;27;45396;-75
2023/07/29 12:32:53;;;;;;;;;3.00;3.00;;;;;;;;5121627;27;45330;-72
2023/07/29 12:35:18;;;;;;;;;0.00;0.00;;;;;;;;5120417;27;47399;-72
2023/07/29 12:37:43;;;;;;;;;2.00;2.00;;;;;;;;5121523;27;45414;-73
2023/07/29 12:40:29;;;;;;;;;3.50;3.50;;;;;;;;5120907;27;45540;-72
2023/07/29 12:42:54;;;;;;;;;4.00;4.00;;;;;;;;5123142;27;45408;-73
2023/07/29 12:45:22;;;;;;;;;1.75;1.75;;;;;;;;5123471;27;47071;-74
2023/07/29 12:47:47;;;;;;;;;1.00;1.00;;;;;;;;5123685;27;45302;-72
2023/07/29 12:50:13;;;;;;;;;3.00;3.00;;;;;;;;5123378;27;45226;-73
2023/07/29 12:52:38;;;;;;;;;3.00;3.00;;;;;;;;5123474;27;45380;-73
2023/07/29 12:55:04;;;;;;;;;3.00;3.00;;;;;;;;5123451;27;47014;-73
2023/07/29 12:57:29;;;;;;;;;1.50;1.50;;;;;;;;5123152;27;45297;-73
2023/07/29 12:59:54;;;;;;;;;3.00;3.00;;;;;;;;5123561;27;45354;-73
2023/07/29 13:02:19;;;;;;;;;2.75;2.75;;;;;;;;5123489;27;45939;-73
2023/07/29 13:04:45;;;;;;;;;2.00;2.00;;;;;;;;5141977;27;46406;-74
2023/07/29 13:07:10;;;;;;;;;3.00;2.00;;;;;;;;5123180;27;45290;-75
2023/07/29 13:09:35;;;;;;;;;3.00;3.00;;;;;;;;5123433;27;45547;-72
2023/07/29 13:12:01;;;;;;;;;3.25;3.25;;;;;;;;5123287;27;47420;-73
2023/07/29 13:14:26;;;;;;;;;3.00;3.00;;;;;;;;5123105;27;46398;-73
2023/07/29 13:16:51;;;;;;;;;3.50;3.50;;;;;;;;5123283;27;45376;-73
2023/07/29 13:19:18;;;;;;;;;3.25;3.25;;;;;;;;5123305;27;45405;-73
2023/07/29 13:21:43;;;;;;;;;2.75;2.75;;;;;;;;5123135;27;45980;-73
2023/07/29 13:24:08;;;;;;;;;1.75;1.75;;;;;;;;5122642;27;46457;-73
2023/07/29 13:26:34;;;;;;;;;2.00;2.00;;;;;;;;5123087;27;45339;-73
2023/07/29 13:28:59;;;;;;;;;2.25;2.25;;;;;;;;5116956;27;45314;-74
2023/07/29 13:31:24;;;;;;;;;2.00;2.00;;;;;;;;5102211;27;45358;-73
2023/07/29 13:33:50;;;;;;;;;2.00;2.00;;;;;;;;5101890;27;48165;-73
2023/07/29 13:36:15;;;;;;;;;3.00;3.00;;;;;;;;5102056;27;45305;-74
2023/07/29 13:38:41;;;;;;;;;3.00;2.75;;;;;;;;5102282;27;45516;-74
2023/07/29 13:41:06;;;;;;;;;6.00;5.75;;;;;;;;5102068;27;45923;-74
2023/07/29 13:43:31;;;;;;;;;2.00;2.00;;;;;;;;5102195;27;47574;-74
2023/07/29 13:45:56;;;;;;;;;2.00;2.00;;;;;;;;5120735;27;45211;-74
2023/07/29 13:48:22;;;;;;;;;2.00;2.00;;;;;;;;5102401;27;45205;-73
2023/07/29 13:50:47;;;;;;;;;2.75;2.75;;;;;;;;5120440;27;45173;-73
2023/07/29 13:53:12;;;;;;;;;2.25;2.25;;;;;;;;5101837;27;46583;-74
2023/07/29 13:55:37;;;;;;;;;1.50;1.50;;;;;;;;5101981;27;45318;-74
2023/07/29 13:58:02;;;;;;;;;2.00;2.00;;;;;;;;5102248;27;45298;-74
2023/07/29 14:00:28;;;;;;;;;3.00;3.00;;;;;;;;5101886;27;45338;-73
2023/07/29 14:02:53;;;;;;;;;2.25;2.25;;;;;;;;5101965;27;47327;-73
2023/07/29 14:05:18;;;;;;;;;2.00;2.00;;;;;;;;5101629;27;45330;-73
2023/07/29 14:07:43;;;;;;;;;3.50;3.50;;;;;;;;5101681;27;45217;-74
2023/07/29 14:10:09;;;;;;;;;5.00;3.00;;;;;;;;5104100;27;46057;-74
2023/07/29 14:12:34;;;;;;;;;1.50;1.50;;;;;;;;5105241;27;45267;-74
2023/07/29 14:14:59;;;;;;;;;2.00;2.00;;;;;;;;5105250;27;45548;-74
2023/07/29 14:17:25;;;;;;;;;4.00;2.50;;;;;;;;5105648;27;45366;-74
2023/07/29 14:19:50;;;;;;;;;3.75;3.00;;;;;;;;5105304;27;45336;-74
2023/07/29 14:22:15;;;;;;;;;3.50;3.50;;;;;;;;5104864;27;46709;-74
2023/07/29 14:24:40;;;;;;;;;2.75;2.75;;;;;;;;5105322;27;45535;-73
2023/07/29 14:27:05;;;;;;;;;1.00;1.00;;;;;;;;5105224;27;45350;-74
2023/07/29 14:29:31;;;;;;;;;3.00;3.00;;;;;;;;5134220;27;45264;-73
2023/07/29 14:31:57;;;;;;;;;2.50;2.50;;;;;;;;5125792;27;46632;-74
2023/07/29 14:34:22;;;;;;;;;2.25;2.00;;;;;;;;5125751;27;45350;-73